Time;durP1;ratioP1;P1;durP2;ratioP2;P2;SDS_P1;SDS_P2;PMS_P1;PMS_P2;Temp;Humidity;BMP_temperature;BMP_pressure;BME280_temperature;BME280_humidity;BME280_pressure;Samples;Min_cycle;Max_cycle;Signal;HPM_P1;HPM_P2
2020/12/04 00:01:32;;;;;;;4.75;3.70;;;;;;;4.29;70.34;96288.88;5093397;28;20040;-65
2020/12/04 00:03:58;;;;;;;5.75;4.30;;;;;;;4.31;70.42;96290.25;5093483;28;20059;-65
2020/12/04 00:06:25;;;;;;;4.50;3.20;;;;;;;4.33;70.56;96277.78;5095045;28;20048;-65
2020/12/04 00:08:52;;;;;;;4.07;3.25;;;;;;;4.28;70.38;96274.97;5094044;28;20036;-65
2020/12/04 00:11:19;;;;;;;3.25;2.78;;;;;;;4.24;70.67;96273.81;5093269;28;20063;-65
2020/12/04 00:13:46;;;;;;;4.45;3.70;;;;;;;4.19;70.75;96261.38;5093078;28;20048;-65
2020/12/04 00:16:13;;;;;;;4.05;3.33;;;;;;;4.17;71.01;96246.94;5093132;28;20498;-65
2020/12/04 00:18:40;;;;;;;4.55;3.92;;;;;;;4.14;71.29;96253.38;5094226;28;20044;-64
2020/12/04 00:21:07;;;;;;;4.60;3.65;;;;;;;4.13;71.29;96243.94;5094457;28;20047;-65
2020/12/04 00:23:33;;;;;;;6.43;3.85;;;;;;;4.11;71.54;96237.31;5094184;28;20047;-65
2020/12/04 00:26:01;;;;;;;3.88;3.17;;;;;;;4.12;71.61;96238.91;5094191;28;20036;-65
2020/12/04 00:28:28;;;;;;;4.80;3.60;;;;;;;4.15;71.42;96228.03;5093988;28;20043;-65
2020/12/04 00:30:54;;;;;;;5.55;3.85;;;;;;;4.11;71.46;96219.03;5094194;28;20520;-65
2020/12/04 00:33:22;;;;;;;3.25;2.95;;;;;;;4.08;71.84;96219.44;5092632;28;20051;-65
2020/12/04 00:35:48;;;;;;;3.80;3.28;;;;;;;4.05;71.97;96209.44;5092527;28;20055;-65
2020/12/04 00:38:15;;;;;;;4.05;3.28;;;;;;;4.03;71.96;96207.00;5093470;28;20398;-66
2020/12/04 00:40:42;;;;;;;4.60;3.70;;;;;;;4.05;72.15;96212.03;5093963;28;20516;-65
2020/12/04 00:43:08;;;;;;;4.30;3.15;;;;;;;4.10;72.28;96199.13;5093853;28;20044;-65
2020/12/04 00:45:35;;;;;;;5.38;3.92;;;;;;;4.14;72.21;96192.44;5092536;28;20048;-65
2020/12/04 00:48:02;;;;;;;5.00;3.63;;;;;;;4.11;72.03;96185.81;5092301;28;20044;-65
2020/12/04 00:50:30;;;;;;;4.72;3.53;;;;;;;4.06;72.17;96180.44;5092397;28;20505;-67
2020/12/04 00:53:00;;;;;;;9.00;3.90;;;;;;;4.08;72.37;96178.44;5092371;28;20482;-66
2020/12/04 00:55:27;;;;;;;4.03;3.33;;;;;;;4.07;72.23;96161.13;5092410;28;20048;-66
2020/12/04 00:57:54;;;;;;;5.05;3.53;;;;;;;4.07;72.42;96158.50;5091857;28;20048;-66
2020/12/04 01:00:21;;;;;;;4.68;3.45;;;;;;;4.11;72.42;96157.06;5093470;28;20057;-66
2020/12/04 01:02:48;;;;;;;8.85;3.55;;;;;;;4.16;72.28;96141.56;5092143;28;20051;-66
2020/12/04 01:05:14;;;;;;;5.07;2.92;;;;;;;4.17;72.25;96150.19;5093271;28;20044;-67
2020/12/04 01:07:42;;;;;;;6.25;3.40;;;;;;;4.17;72.10;96140.53;5091715;28;20063;-66
2020/12/04 01:10:09;;;;;;;6.68;3.95;;;;;;;4.21;71.99;96130.44;5093144;28;20385;-67
2020/12/04 01:12:35;;;;;;;6.10;3.70;;;;;;;4.28;71.88;96127.72;5092866;28;20040;-66
2020/12/04 01:15:02;;;;;;;5.30;3.53;;;;;;;4.31;71.64;96137.75;5093334;28;20050;-66
2020/12/04 01:17:29;;;;;;;4.60;3.65;;;;;;;4.38;71.81;96134.06;5092720;28;20050;-66
2020/12/04 01:19:56;;;;;;;5.53;3.53;;;;;;;4.43;70.92;96128.16;5091478;28;20044;-67
2020/12/04 01:22:22;;;;;;;7.32;4.28;;;;;;;4.50;70.91;96130.72;5092935;28;20118;-67
2020/12/04 01:24:50;;;;;;;6.85;4.00;;;;;;;4.50;70.61;96123.66;5092799;28;20043;-67
2020/12/04 01:27:17;;;;;;;5.53;4.13;;;;;;;4.51;70.71;96127.09;5093060;28;20050;-66
2020/12/04 01:29:44;;;;;;;5.63;4.07;;;;;;;4.58;70.45;96125.19;5092645;28;20047;-66
2020/12/04 01:32:11;;;;;;;5.28;3.80;;;;;;;4.58;70.26;96118.13;5092774;28;20080;-66
2020/12/04 01:34:37;;;;;;;3.80;3.40;;;;;;;4.62;70.06;96123.72;5092737;28;20036;-66
2020/12/04 01:37:04;;;;;;;5.18;3.67;;;;;;;4.64;70.21;96121.69;5092383;28;20048;-66
2020/12/04 01:39:31;;;;;;;4.82;3.60;;;;;;;4.66;70.10;96114.44;5092577;28;20048;-66
2020/12/04 01:41:58;;;;;;;3.85;3.10;;;;;;;4.68;70.03;96120.22;5092441;28;20062;-67
2020/12/04 01:44:25;;;;;;;4.95;3.13;;;;;;;4.70;69.94;96126.84;5092639;28;20048;-66
2020/12/04 01:46:52;;;;;;;3.30;3.00;;;;;;;4.78;70.11;96119.72;5090965;28;20142;-66
2020/12/04 01:49:19;;;;;;;4.88;3.67;;;;;;;4.83;69.96;96128.50;5092419;28;20493;-66
2020/12/04 01:51:47;;;;;;;5.13;3.70;;;;;;;4.84;69.66;96122.22;5092471;28;20044;-67
2020/12/04 01:54:15;;;;;;;4.63;3.17;;;;;;;4.86;69.71;96124.66;5092404;28;20040;-67
2020/12/04 01:56:42;;;;;;;4.70;3.45;;;;;;;4.91;69.82;96122.94;5092348;28;20044;-66
2020/12/04 01:59:10;;;;;;;5.10;3.33;;;;;;;4.93;69.33;96123.50;5091969;28;20051;-66
2020/12/04 02:01:40;;;;;;;3.33;3.03;;;;;;;4.90;69.38;96118.75;5091006;28;20044;-65
2020/12/04 02:04:08;;;;;;;3.58;3.05;;;;;;;4.92;68.99;96113.28;5092294;28;20070;-66
2020/12/04 02:06:40;;;;;;;3.03;2.55;;;;;;;4.90;68.83;96110.88;5092137;28;20489;-66
2020/12/04 02:09:10;;;;;;;6.20;3.30;;;;;;;4.91;69.24;96115.09;5091880;28;20107;-65
2020/12/04 02:11:39;;;;;;;3.75;3.30;;;;;;;4.94;69.22;96108.63;5092243;28;20044;-66
2020/12/04 02:14:08;;;;;;;3.60;3.03;;;;;;;4.91;68.99;96103.81;5092132;28;20495;-65
2020/12/04 02:16:42;;;;;;;3.70;3.15;;;;;;;4.92;69.18;96095.75;5092066;28;20043;-65
2020/12/04 02:19:09;;;;;;;2.85;2.53;;;;;;;4.91;69.18;96093.34;5091726;28;20490;-65
2020/12/04 02:21:38;;;;;;;3.25;2.90;;;;;;;4.91;69.19;96088.91;5092106;28;20048;-65
2020/12/04 02:24:05;;;;;;;4.85;3.75;;;;;;;4.91;69.33;96101.22;5092914;28;20405;-65
2020/12/04 02:26:33;;;;;;;3.72;3.20;;;;;;;4.92;69.34;96084.47;5094905;28;20528;-64
2020/12/04 02:29:03;;;;;;;4.72;3.72;;;;;;;4.96;69.85;96089.03;5095879;28;20032;-64
2020/12/04 02:31:31;;;;;;;4.45;3.30;;;;;;;4.95;69.59;96084.84;5096162;28;20047;-64
2020/12/04 02:33:57;;;;;;;4.97;3.30;;;;;;;4.92;69.91;96087.09;5096119;28;20052;-64
2020/12/04 02:36:24;;;;;;;3.45;3.00;;;;;;;4.94;70.03;96082.44;5094731;28;20429;-65
2020/12/04 02:38:51;;;;;;;4.15;3.47;;;;;;;4.91;70.19;96070.59;5095574;28;20444;-65
2020/12/04 02:41:18;;;;;;;3.20;2.90;;;;;;;4.93;70.58;96086.06;5094610;28;20048;-65
2020/12/04 02:43:45;;;;;;;4.88;3.50;;;;;;;5.03;70.28;96088.16;5095940;28;20520;-65
2020/12/04 02:46:11;;;;;;;3.85;3.40;;;;;;;5.06;70.14;96090.31;5095974;28;20044;-65
2020/12/04 02:48:38;;;;;;;5.32;3.33;;;;;;;5.02;70.44;96092.59;5095423;28;20076;-65
2020/12/04 02:51:06;;;;;;;3.92;3.22;;;;;;;5.08;70.49;96090.91;5095793;28;20054;-65
2020/12/04 02:53:33;;;;;;;4.32;3.25;;;;;;;5.11;70.50;96088.63;5094581;28;20055;-65
2020/12/04 02:56:01;;;;;;;3.72;3.30;;;;;;;5.15;70.43;96083.75;5095930;28;20043;-65
2020/12/04 02:58:27;;;;;;;4.07;3.67;;;;;;;5.11;70.57;96093.88;5093912;28;20043;-65
2020/12/04 03:00:54;;;;;;;4.75;3.70;;;;;;;5.12;70.76;96086.81;5095833;28;20040;-65
2020/12/04 03:03:21;;;;;;;5.75;3.70;;;;;;;5.16;70.65;96087.97;5095603;28;20076;-65
2020/12/04 03:05:47;;;;;;;3.78;3.20;;;;;;;5.07;70.82;96086.69;5095556;28;20498;-65
2020/12/04 03:08:14;;;;;;;3.92;3.10;;;;;;;5.10;70.77;96078.38;5093862;28;20067;-65
2020/12/04 03:10:41;;;;;;;4.95;3.50;;;;;;;5.05;70.78;96067.78;5095477;28;20414;-65
2020/12/04 03:13:08;;;;;;;4.95;3.25;;;;;;;5.08;70.80;96069.94;5095419;28;20067;-65
2020/12/04 03:15:35;;;;;;;3.63;3.22;;;;;;;5.06;70.83;96078.03;5095370;28;20050;-66
2020/12/04 03:18:02;;;;;;;4.47;3.47;;;;;;;5.00;70.92;96065.03;5094887;28;20048;-65
2020/12/04 03:20:30;;;;;;;4.32;3.60;;;;;;;4.97;71.11;96061.03;5095189;28;20444;-65
2020/12/04 03:22:56;;;;;;;5.25;3.38;;;;;;;4.95;71.28;96052.63;5095102;28;20044;-65
2020/12/04 03:25:23;;;;;;;4.80;3.40;;;;;;;4.98;71.55;96049.56;5093832;28;20044;-67
2020/12/04 03:27:50;;;;;;;5.88;3.47;;;;;;;4.96;71.28;96036.69;5094801;28;20504;-65
2020/12/04 03:30:17;;;;;;;4.05;3.50;;;;;;;5.00;71.61;96036.25;5094985;28;20044;-64
2020/12/04 03:32:44;;;;;;;3.70;3.10;;;;;;;5.02;71.39;96021.09;5095056;28;20040;-65
2020/12/04 03:35:11;;;;;;;3.95;3.28;;;;;;;4.99;71.23;96029.41;5094676;28;20044;-65
2020/12/04 03:37:38;;;;;;;3.97;3.03;;;;;;;4.97;71.47;96017.31;5094939;28;20047;-65
2020/12/04 03:40:05;;;;;;;4.75;3.20;;;;;;;4.96;71.62;96014.94;5094808;28;20040;-65
2020/12/04 03:42:31;;;;;;;3.92;3.13;;;;;;;4.98;71.80;96005.06;5093401;28;20051;-65
2020/12/04 03:44:58;;;;;;;4.03;3.00;;;;;;;5.04;71.56;96019.06;5094774;28;20040;-65
2020/12/04 03:47:26;;;;;;;2.97;2.70;;;;;;;5.03;71.73;96010.41;5094469;28;20055;-65
2020/12/04 03:49:52;;;;;;;3.35;2.90;;;;;;;5.07;71.76;96008.13;5094451;28;20377;-65
2020/12/04 03:52:20;;;;;;;4.20;3.13;;;;;;;5.11;71.72;96002.22;5093394;28;20401;-65
2020/12/04 03:54:47;;;;;;;2.97;2.60;;;;;;;5.17;71.55;96003.13;5094608;28;20411;-65
2020/12/04 03:57:13;;;;;;;3.85;2.70;;;;;;;5.17;71.70;96008.38;5094296;28;20052;-65
2020/12/04 03:59:40;;;;;;;5.65;2.97;;;;;;;5.18;71.37;95999.47;5094323;28;20054;-67
2020/12/04 04:02:07;;;;;;;4.47;2.72;;;;;;;5.16;71.35;96009.41;5094362;28;20044;-65
2020/12/04 04:04:35;;;;;;;4.22;3.30;;;;;;;5.19;71.41;96001.88;5094396;28;20123;-67
2020/12/04 04:07:02;;;;;;;4.53;2.72;;;;;;;5.21;71.17;96012.13;5094145;28;20494;-65
2020/12/04 04:09:28;;;;;;;4.03;3.15;;;;;;;5.23;70.84;96007.47;5094150;28;20040;-66
2020/12/04 04:11:55;;;;;;;5.22;3.08;;;;;;;5.24;70.95;96005.66;5092944;28;20541;-65
2020/12/04 04:14:22;;;;;;;3.20;2.90;;;;;;;5.22;70.70;96011.09;5094188;28;20051;-66
2020/12/04 04:16:48;;;;;;;4.50;3.03;;;;;;;5.27;70.42;96000.75;5092684;28;20402;-68
2020/12/04 04:19:15;;;;;;;5.55;3.45;;;;;;;5.31;70.36;95998.50;5093954;28;20043;-66
2020/12/04 04:21:42;;;;;;;7.70;3.20;;;;;;;5.29;69.85;96003.94;5101042;28;20066;-65
2020/12/04 04:24:09;;;;;;;4.10;3.40;;;;;;;5.32;69.91;96011.34;5100194;28;20048;-66
2020/12/04 04:26:36;;;;;;;4.00;3.60;;;;;;;5.33;69.76;96002.44;5096786;28;20113;-65
2020/12/04 04:29:03;;;;;;;3.38;3.08;;;;;;;5.36;69.87;96009.06;5093744;28;20073;-66
2020/12/04 04:31:30;;;;;;;4.43;3.35;;;;;;;5.36;69.76;96004.63;5092804;28;20048;-65
2020/12/04 04:33:56;;;;;;;6.18;4.60;;;;;;;5.46;69.59;96006.66;5093857;28;20051;-65
2020/12/04 04:36:23;;;;;;;4.88;3.38;;;;;;;5.47;69.29;96009.06;5093802;28;20043;-67
2020/12/04 04:38:51;;;;;;;6.60;3.90;;;;;;;5.49;69.42;96021.16;5093330;28;20111;-65
2020/12/04 04:41:17;;;;;;;4.22;3.70;;;;;;;5.47;69.21;96016.94;5093569;28;20051;-65
2020/12/04 04:43:44;;;;;;;4.57;3.55;;;;;;;5.51;69.34;96019.06;5093828;28;20055;-65
2020/12/04 04:46:18;;;;;;;5.00;3.42;;;;;;;5.52;69.38;96029.34;5093425;28;20109;-65
2020/12/04 04:48:52;;;;;;;4.63;3.67;;;;;;;5.56;69.52;96025.25;5092908;28;20047;-65
2020/12/04 04:51:20;;;;;;;4.45;3.60;;;;;;;5.54;69.59;96023.88;5093587;28;20050;-65
2020/12/04 04:53:55;;;;;;;3.92;3.40;;;;;;;5.58;69.41;96022.38;5093530;28;20032;-65
2020/12/04 04:56:21;;;;;;;4.88;3.47;;;;;;;5.58;69.45;96030.25;5093326;28;20516;-65
2020/12/04 04:58:48;;;;;;;4.65;3.30;;;;;;;5.61;69.38;96029.81;5092904;28;20048;-65
2020/12/04 05:01:15;;;;;;;3.75;3.42;;;;;;;5.60;69.84;96036.06;5093251;28;20063;-65
2020/12/04 05:03:55;;;;;;;4.38;3.03;;;;;;;5.58;69.88;96035.50;5093237;28;20040;-65
2020/12/04 05:06:30;;;;;;;4.80;3.53;;;;;;;5.60;69.98;96036.06;5093147;28;20048;-65
2020/12/04 05:08:58;;;;;;;4.60;3.47;;;;;;;5.58;70.20;96032.88;5092826;28;20449;-65
2020/12/04 05:11:25;;;;;;;4.25;3.00;;;;;;;5.59;70.45;96039.69;5093176;28;20040;-65
2020/12/04 05:14:11;;;;;;;4.70;3.63;;;;;;;5.63;70.52;96032.97;5093318;28;20071;-65
2020/12/04 05:16:38;;;;;;;6.25;4.40;;;;;;;5.66;70.45;96032.53;5093056;28;20043;-65
2020/12/04 05:19:05;;;;;;;4.05;3.17;;;;;;;5.71;70.65;96040.50;5092641;28;20493;-65
2020/12/04 05:21:32;;;;;;;3.53;3.03;;;;;;;5.67;70.64;96023.63;5092892;28;20294;-65
2020/12/04 05:24:00;;;;;;;3.15;2.50;;;;;;;5.68;70.64;96022.63;5092896;28;20050;-66
2020/12/04 05:26:31;;;;;;;3.67;2.92;;;;;;;5.65;70.97;96023.88;5092816;28;20378;-65
2020/12/04 05:28:59;;;;;;;3.35;2.90;;;;;;;5.67;71.10;96029.69;5091229;28;20113;-65
2020/12/04 05:31:31;;;;;;;3.40;3.10;;;;;;;5.62;71.31;96037.41;5092791;28;20040;-65
2020/12/04 05:33:58;;;;;;;3.53;2.58;;;;;;;5.62;71.40;96031.38;5092778;28;20135;-65
2020/12/04 05:36:29;;;;;;;3.53;2.70;;;;;;;5.65;71.46;96028.31;5092776;28;20040;-65
2020/12/04 05:38:58;;;;;;;4.05;3.20;;;;;;;5.65;71.70;96038.81;5092572;28;20052;-65
2020/12/04 05:41:26;;;;;;;2.75;2.35;;;;;;;5.63;72.02;96038.22;5092600;28;20044;-65
2020/12/04 05:43:53;;;;;;;3.55;2.42;;;;;;;5.64;71.96;96032.75;5091533;28;20058;-66
2020/12/04 05:46:22;;;;;;;3.50;2.88;;;;;;;5.70;71.86;96047.56;5092474;28;20040;-65
2020/12/04 05:48:57;;;;;;;3.42;2.70;;;;;;;5.72;72.26;96045.53;5092169;28;20044;-65
2020/12/04 05:51:26;;;;;;;3.45;2.78;;;;;;;5.76;72.12;96040.63;5092581;28;20036;-65
2020/12/04 05:53:54;;;;;;;3.05;2.75;;;;;;;5.77;72.30;96044.03;5092515;28;20044;-65
2020/12/04 05:56:21;;;;;;;3.00;2.47;;;;;;;5.77;72.06;96036.19;5092366;28;20044;-65
2020/12/04 05:58:53;;;;;;;6.35;3.15;;;;;;;5.70;72.37;96042.31;5091889;28;20047;-65
2020/12/04 06:01:21;;;;;;;2.92;2.63;;;;;;;5.72;72.55;96044.72;5092325;28;20044;-65
2020/12/04 06:03:49;;;;;;;4.32;2.83;;;;;;;5.75;72.37;96040.84;5092285;28;20040;-65
2020/12/04 06:06:23;;;;;;;3.60;2.58;;;;;;;5.75;72.33;96039.00;5092201;28;20521;-66
2020/12/04 06:08:51;;;;;;;3.53;2.60;;;;;;;5.76;72.36;96039.84;5092056;28;20456;-65
2020/12/04 06:11:18;;;;;;;2.45;2.25;;;;;;;5.71;71.94;96035.25;5092202;28;20444;-65
2020/12/04 06:13:45;;;;;;;2.80;2.60;;;;;;;5.71;72.52;96041.31;5092114;28;20059;-65
2020/12/04 06:16:15;;;;;;;3.58;2.95;;;;;;;5.74;72.55;96045.28;5092404;28;20131;-65
2020/12/04 06:18:42;;;;;;;3.53;2.50;;;;;;;5.75;72.28;96043.47;5091723;28;20055;-65
2020/12/04 06:21:09;;;;;;;3.42;2.65;;;;;;;5.74;72.24;96042.66;5092182;28;20048;-65
2020/12/04 06:23:36;;;;;;;3.35;2.42;;;;;;;5.74;72.56;96045.28;5092247;28;20109;-65
2020/12/04 06:26:07;;;;;;;2.78;2.47;;;;;;;5.76;72.28;96053.72;5092132;28;20061;-67
2020/12/04 06:28:37;;;;;;;3.78;2.63;;;;;;;5.78;72.12;96040.38;5091872;28;20114;-66
2020/12/04 06:31:10;;;;;;;3.15;2.78;;;;;;;5.76;72.31;96050.31;5092207;28;20043;-66
2020/12/04 06:33:45;;;;;;;3.45;2.50;;;;;;;5.76;71.95;96045.06;5092198;28;20121;-67
2020/12/04 06:36:33;;;;;;;3.28;2.97;;;;;;;5.74;72.10;96057.59;5091970;28;20058;-66
2020/12/04 06:39:01;;;;;;;4.28;3.28;;;;;;;5.69;71.86;96047.81;5090419;28;20062;-66
2020/12/04 06:41:32;;;;;;;3.10;2.80;;;;;;;5.72;71.79;96053.38;5091824;28;20040;-66
2020/12/04 06:44:01;;;;;;;3.58;2.97;;;;;;;5.69;71.84;96066.94;5091944;28;20498;-67
2020/12/04 06:46:36;;;;;;;3.25;2.80;;;;;;;5.71;72.11;96064.91;5092047;28;20040;-66
2020/12/04 06:51:59;;;;;;;3.70;2.60;;;;;;;5.78;71.98;96066.59;5087368;28;20047;-66
2020/12/04 06:54:27;;;;;;;4.30;2.72;;;;;;;5.76;72.16;96068.66;5091802;28;20044;-65
2020/12/04 06:56:54;;;;;;;3.35;2.97;;;;;;;5.74;71.95;96073.31;5091946;28;20048;-66
2020/12/04 06:59:23;;;;;;;3.55;2.65;;;;;;;5.67;72.14;96078.66;5091472;28;20040;-67
2020/12/04 07:01:51;;;;;;;3.83;2.90;;;;;;;5.68;72.29;96080.28;5091718;28;20509;-66
2020/12/04 07:04:18;;;;;;;3.45;3.15;;;;;;;5.68;72.07;96081.09;5091634;28;20040;-67
2020/12/04 07:06:45;;;;;;;3.05;2.72;;;;;;;5.66;72.26;96084.94;5091711;28;20501;-67
2020/12/04 07:09:11;;;;;;;4.57;2.90;;;;;;;5.67;72.60;96083.91;5091404;28;20386;-66
2020/12/04 07:11:39;;;;;;;3.15;2.63;;;;;;;5.74;72.26;96095.09;5095097;28;20213;-66
2020/12/04 07:14:06;;;;;;;3.70;2.80;;;;;;;5.70;72.05;96089.50;5095272;28;20051;-66
2020/12/04 07:16:32;;;;;;;4.10;2.92;;;;;;;5.71;72.55;96090.28;5095450;28;20436;-65
2020/12/04 07:18:59;;;;;;;3.42;2.90;;;;;;;5.68;72.57;96094.19;5094953;28;20044;-66
2020/12/04 07:21:27;;;;;;;5.28;4.13;;;;;;;5.71;72.62;96100.78;5095337;28;20047;-67
2020/12/04 07:23:55;;;;;;;7.30;5.60;;;;;;;5.74;72.85;96097.72;5095286;28;20423;-67
2020/12/04 07:26:22;;;;;;;10.70;7.53;;;;;;;5.78;72.88;96090.19;5095267;28;20048;-66
2020/12/04 07:28:49;;;;;;;4.43;3.80;;;;;;;5.79;72.85;96089.94;5094728;28;20044;-66
2020/12/04 07:31:18;;;;;;;3.20;2.90;;;;;;;5.80;72.84;96088.16;5095223;28;20044;-66
2020/12/04 07:33:58;;;;;;;4.45;2.95;;;;;;;5.85;72.81;96091.69;5093941;28;20506;-67
2020/12/04 07:36:27;;;;;;;5.25;3.47;;;;;;;5.88;72.74;96095.69;5094992;28;20052;-66
2020/12/04 07:38:56;;;;;;;5.85;3.72;;;;;;;5.90;72.80;96091.78;5094451;28;20050;-67
2020/12/04 07:41:30;;;;;;;7.03;3.63;;;;;;;5.94;72.66;96097.41;5094715;28;20036;-67
2020/12/04 07:43:58;;;;;;;;;;;;;;;5.93;72.61;96093.97;5095172;28;20043;-66
2020/12/04 07:46:24;;;;;;;3.60;3.08;;;;;;;5.94;72.48;96098.19;5094715;28;19920;-67
2020/12/04 07:49:05;;;;;;;11.25;8.20;;;;;;;5.99;72.56;96104.56;5094292;28;20114;-66
2020/12/04 07:51:35;;;;;;;5.35;2.92;;;;;;;5.99;72.44;96104.56;5094646;28;20039;-66
2020/12/04 07:54:05;;;;;;;4.80;4.28;;;;;;;6.02;72.34;96101.50;5094675;28;20059;-67
2020/12/04 07:56:33;;;;;;;2.83;2.40;;;;;;;6.01;72.47;96103.34;5094498;28;20075;-67
2020/12/04 07:59:04;;;;;;;4.47;3.50;;;;;;;6.04;72.66;96110.75;5094290;28;20097;-66
2020/12/04 08:01:31;;;;;;;3.17;2.88;;;;;;;6.09;72.60;96102.19;5094658;28;20044;-67
2020/12/04 08:03:58;;;;;;;3.38;2.28;;;;;;;6.13;72.42;96103.31;5094504;28;20050;-67
2020/12/04 08:06:26;;;;;;;4.60;3.47;;;;;;;6.20;72.07;96096.94;5094537;28;20059;-67
2020/12/04 08:09:12;;;;;;;6.20;4.47;;;;;;;6.20;71.87;96102.19;5094269;28;20046;-67
2020/12/04 08:11:47;;;;;;;2.90;2.30;;;;;;;6.20;71.87;96098.72;5094473;28;20036;-67
2020/12/04 08:14:21;;;;;;;4.72;3.00;;;;;;;6.23;71.88;96103.53;5094804;28;20059;-66
2020/12/04 08:16:48;;;;;;;;;;;;;;;6.29;71.81;96101.81;5096381;28;20055;-66
2020/12/04 08:19:15;;;;;;;3.47;2.65;;;;;;;6.32;71.33;96098.72;5097972;28;19920;-67
2020/12/04 08:22:01;;;;;;;2.95;1.73;;;;;;;6.33;71.38;96095.09;5097876;28;20146;-67
2020/12/04 08:24:31;;;;;;;7.32;3.28;;;;;;;6.37;71.42;96091.75;5097238;28;20052;-67
2020/12/04 08:27:03;;;;;;;4.22;2.53;;;;;;;6.42;71.52;96097.09;5098517;28;20055;-66
2020/12/04 08:29:29;;;;;;;2.20;1.92;;;;;;;6.49;71.52;96104.03;5096780;28;20044;-67
2020/12/04 08:32:14;;;;;;;2.63;1.75;;;;;;;6.56;71.42;96102.88;5094049;28;20544;-67
2020/12/04 08:34:44;;;;;;;3.00;2.55;;;;;;;6.62;71.02;96103.78;5093966;28;20044;-67
2020/12/04 08:37:12;;;;;;;5.03;2.70;;;;;;;6.68;70.56;96123.84;5093478;28;20055;-66
2020/12/04 08:39:46;;;;;;;3.67;2.33;;;;;;;6.68;70.62;96119.38;5092314;28;20399;-66
2020/12/04 08:42:20;;;;;;;3.55;2.22;;;;;;;6.68;70.49;96129.88;5093515;28;20078;-66
2020/12/04 08:45:06;;;;;;;3.70;2.28;;;;;;;6.70;70.25;96140.19;5092341;28;20055;-67
2020/12/04 08:47:39;;;;;;;2.10;1.90;;;;;;;6.69;70.65;96130.69;5093264;28;20067;-66
2020/12/04 08:50:09;;;;;;;1.83;1.52;;;;;;;6.67;70.40;96133.56;5092167;28;20044;-66
2020/12/04 08:52:41;;;;;;;4.70;1.80;;;;;;;6.67;70.50;96138.81;5093637;28;20039;-66
2020/12/04 08:55:11;;;;;;;1.98;1.58;;;;;;;6.66;70.41;96145.09;5093428;28;20047;-66
2020/12/04 08:57:38;;;;;;;1.60;1.48;;;;;;;6.68;70.63;96152.72;5093109;28;20047;-66
2020/12/04 09:00:07;;;;;;;1.60;1.50;;;;;;;6.69;70.47;96143.81;5098525;28;20047;-66
2020/12/04 09:02:35;;;;;;;4.47;2.20;;;;;;;6.68;70.83;96126.47;5111735;28;20090;-67
2020/12/04 09:05:03;;;;;;;3.95;3.10;;;;;;;6.74;70.75;96136.06;5107137;28;20059;-66
2020/12/04 09:07:29;;;;;;;12.45;8.55;;;;;;;6.67;71.06;96143.25;5103588;28;20059;-67
2020/12/04 09:09:56;;;;;;;5.88;4.30;;;;;;;6.73;70.97;96139.69;5093231;28;20036;-66
2020/12/04 09:12:24;;;;;;;9.55;3.83;;;;;;;6.74;71.23;96138.69;5092961;28;20043;-66
2020/12/04 09:14:50;;;;;;;2.88;2.10;;;;;;;6.76;71.05;96141.84;5092889;28;20051;-66
2020/12/04 09:17:17;;;;;;;2.45;2.10;;;;;;;6.79;71.20;96149.28;5093031;28;20398;-66
2020/12/04 09:19:45;;;;;;;2.63;2.22;;;;;;;6.88;71.04;96149.69;5091536;28;20051;-66
2020/12/04 09:22:13;;;;;;;6.88;3.83;;;;;;;6.94;70.61;96146.16;5092911;28;20048;-67
2020/12/04 09:24:41;;;;;;;8.77;4.30;;;;;;;6.99;70.66;96150.69;5091745;28;20452;-66
2020/12/04 09:27:07;;;;;;;5.97;3.00;;;;;;;6.97;70.17;96142.25;5091178;28;20494;-66
2020/12/04 09:29:36;;;;;;;3.13;2.33;;;;;;;7.03;70.74;96146.56;5092723;28;20166;-66
2020/12/04 09:32:07;;;;;;;4.07;2.33;;;;;;;7.10;70.24;96139.31;5091547;28;20052;-67
2020/12/04 09:34:34;;;;;;;3.88;2.65;;;;;;;7.13;70.20;96147.53;5092533;28;20074;-66
2020/12/04 09:37:12;;;;;;;2.10;1.60;;;;;;;7.24;70.23;96153.00;5092690;28;20417;-66
2020/12/04 09:39:39;;;;;;;4.45;2.13;;;;;;;7.34;69.66;96142.66;5092508;28;20044;-67
2020/12/04 09:42:07;;;;;;;3.28;1.80;;;;;;;7.31;69.31;96146.56;5092701;28;20051;-66
2020/12/04 09:44:35;;;;;;;2.25;1.63;;;;;;;7.26;69.10;96146.44;5091320;28;20056;-67
2020/12/04 09:47:02;;;;;;;1.90;1.60;;;;;;;7.24;69.26;96139.84;5092500;28;20047;-67
2020/12/04 09:49:28;;;;;;;2.03;1.70;;;;;;;7.30;69.60;96144.94;5092685;28;20498;-66
2020/12/04 09:51:57;;;;;;;3.55;2.00;;;;;;;7.34;69.07;96143.44;5091383;28;20048;-67
2020/12/04 09:54:25;;;;;;;1.90;1.67;;;;;;;7.34;69.25;96142.66;5092476;28;20044;-67
2020/12/04 09:56:53;;;;;;;1.90;1.70;;;;;;;7.38;69.62;96133.25;5092290;28;20048;-67
2020/12/04 09:59:21;;;;;;;1.75;1.50;;;;;;;7.47;68.86;96144.16;5091233;28;20051;-68
2020/12/04 10:01:49;;;;;;;1.80;1.70;;;;;;;7.48;68.85;96140.53;5092337;28;20036;-66
2020/12/04 10:04:17;;;;;;;2.28;1.50;;;;;;;7.42;68.52;96150.13;5091228;28;20044;-67
2020/12/04 10:06:44;;;;;;;2.90;2.05;;;;;;;7.39;68.94;96156.69;5091008;28;20055;-67
2020/12/04 10:09:11;;;;;;;3.65;2.78;;;;;;;7.40;68.79;96150.38;5091898;28;20047;-67
2020/12/04 10:11:38;;;;;;;5.25;2.10;;;;;;;7.42;69.28;96150.94;5092134;28;20048;-66
2020/12/04 10:14:05;;;;;;;2.58;1.80;;;;;;;7.49;69.00;96152.63;5092356;28;20048;-66
2020/12/04 10:16:32;;;;;;;4.40;2.33;;;;;;;7.42;68.38;96143.06;5092463;28;20044;-66
2020/12/04 10:18:59;;;;;;;1.52;1.42;;;;;;;7.47;69.17;96142.38;5092349;28;20048;-66
2020/12/04 10:21:26;;;;;;;3.58;2.28;;;;;;;7.45;68.85;96147.84;5092383;28;20040;-66
2020/12/04 10:23:54;;;;;;;3.22;2.20;;;;;;;7.49;68.86;96134.22;5091173;28;20059;-67
2020/12/04 10:26:21;;;;;;;2.20;1.80;;;;;;;7.44;68.89;96146.25;5092176;28;20044;-66
2020/12/04 10:28:48;;;;;;;2.00;1.80;;;;;;;7.45;68.94;96137.31;5091796;28;20040;-66
2020/12/04 10:31:15;;;;;;;2.92;1.95;;;;;;;7.42;68.96;96142.25;5092208;28;20036;-67
2020/12/04 10:33:42;;;;;;;5.93;4.05;;;;;;;7.38;68.95;96143.75;5092187;28;20047;-66
2020/12/04 10:36:10;;;;;;;2.05;1.70;;;;;;;7.30;69.32;96144.94;5092014;28;20052;-66
2020/12/04 10:38:36;;;;;;;1.80;1.40;;;;;;;7.35;69.49;96126.66;5091674;28;20036;-66
2020/12/04 10:41:03;;;;;;;4.35;3.78;;;;;;;7.39;69.41;96125.16;5092018;28;20051;-67
2020/12/04 10:43:30;;;;;;;5.38;4.30;;;;;;;7.41;69.34;96133.59;5092327;28;20075;-67
2020/12/04 10:45:57;;;;;;;3.80;2.40;;;;;;;7.39;68.93;96134.88;5094643;28;20044;-66
2020/12/04 10:48:23;;;;;;;2.50;1.60;;;;;;;7.35;69.42;96147.69;5095870;28;20055;-67
2020/12/04 10:50:50;;;;;;;3.47;2.75;;;;;;;7.33;69.78;96144.47;5096113;28;20401;-67
2020/12/04 10:53:22;;;;;;;1.23;1.17;;;;;;;7.37;69.72;96150.84;5095033;28;20134;-67
2020/12/04 10:55:48;;;;;;;3.28;2.53;;;;;;;7.40;69.70;96141.72;5096386;28;20040;-67
2020/12/04 10:58:15;;;;;;;2.35;1.52;;;;;;;7.38;69.73;96143.75;5095766;28;20459;-67
2020/12/04 11:00:46;;;;;;;2.97;2.50;;;;;;;7.30;69.97;96142.31;5095935;28;20040;-67
2020/12/04 11:03:29;;;;;;;2.33;2.13;;;;;;;7.28;70.15;96148.84;5095681;28;20056;-65
2020/12/04 11:05:55;;;;;;;2.47;1.88;;;;;;;7.26;70.10;96153.53;5095817;28;20036;-65
2020/12/04 11:08:22;;;;;;;4.57;3.20;;;;;;;7.20;70.25;96152.66;5094054;28;20067;-66
2020/12/04 11:10:49;;;;;;;1.80;1.50;;;;;;;7.21;70.81;96156.88;5095662;28;20311;-65
2020/12/04 11:13:16;;;;;;;3.92;3.13;;;;;;;7.19;70.47;96157.13;5094333;28;20063;-66
2020/12/04 11:15:44;;;;;;;1.90;1.70;;;;;;;7.18;71.02;96162.59;5095486;28;20097;-66
2020/12/04 11:18:13;;;;;;;2.22;1.50;;;;;;;7.15;71.09;96157.84;5095134;28;20044;-65
2020/12/04 11:20:40;;;;;;;1.63;1.50;;;;;;;7.16;70.91;96157.59;5094060;28;20044;-65
2020/12/04 11:23:06;;;;;;;4.32;1.95;;;;;;;7.14;71.05;96164.09;5095555;28;20580;-65
2020/12/04 11:25:34;;;;;;;1.65;1.55;;;;;;;7.06;71.66;96165.28;5093975;28;20055;-65
2020/12/04 11:28:01;;;;;;;3.60;2.83;;;;;;;7.05;71.58;96147.91;5094814;28;20048;-65
2020/12/04 11:30:28;;;;;;;6.20;4.35;;;;;;;7.05;71.72;96152.38;5095205;28;20044;-65
2020/12/04 11:32:55;;;;;;;3.20;1.83;;;;;;;7.01;71.81;96144.16;5095192;28;20046;-65
2020/12/04 11:35:22;;;;;;;2.42;1.73;;;;;;;6.98;72.09;96143.84;5095946;28;20044;-65
2020/12/04 11:37:49;;;;;;;4.05;1.38;;;;;;;6.98;71.91;96142.03;5095476;28;20036;-64
2020/12/04 11:40:18;;;;;;;1.30;1.20;;;;;;;7.03;72.21;96138.69;5093691;28;20130;-65
2020/12/04 11:42:46;;;;;;;2.65;1.40;;;;;;;7.09;71.49;96141.16;5095069;28;20048;-65
2020/12/04 11:45:15;;;;;;;3.90;1.40;;;;;;;7.08;71.64;96138.78;5094887;28;20044;-66
2020/12/04 11:47:43;;;;;;;2.92;1.88;;;;;;;7.15;71.88;96142.06;5093566;28;20044;-64
2020/12/04 11:50:13;;;;;;;3.58;1.88;;;;;;;7.17;71.44;96138.16;5094737;28;20048;-65